createdAt,value
2023-02-18T00:00:48.344Z,9.81
2023-02-18T00:01:48.342Z,9.77
2023-02-18T00:02:49.879Z,9.73
2023-02-18T00:03:48.376Z,9.77
2023-02-18T00:04:48.271Z,9.77
2023-02-18T00:05:48.267Z,9.77
2023-02-18T00:06:48.282Z,9.78
2023-02-18T00:07:48.286Z,9.78
2023-02-18T00:08:48.639Z,9.73
2023-02-18T00:09:48.253Z,9.77
2023-02-18T00:10:48.223Z,9.77
2023-02-18T00:11:48.212Z,9.75
2023-02-18T00:12:48.209Z,9.75
2023-02-18T00:13:48.224Z,9.73
2023-02-18T00:14:48.229Z,9.69
2023-02-18T00:15:48.236Z,9.67
2023-02-18T00:16:49.027Z,9.66
2023-02-18T00:17:48.152Z,9.67
2023-02-18T00:18:48.164Z,9.67
2023-02-18T00:19:48.178Z,9.67
2023-02-18T00:20:48.103Z,9.65
2023-02-18T00:21:48.104Z,9.62
2023-02-18T00:22:48.204Z,9.69
2023-02-18T00:23:48.088Z,9.66
2023-02-18T00:24:48.096Z,9.59
2023-02-18T00:25:48.075Z,9.54
2023-02-18T00:26:48.043Z,9.50
2023-02-18T00:27:48.586Z,9.45
2023-02-18T00:28:48.021Z,9.40
2023-02-18T00:29:48.051Z,9.33
2023-02-18T00:30:48.068Z,9.24
2023-02-18T00:31:48.087Z,9.19
2023-02-18T00:32:48.006Z,9.11
2023-02-18T00:33:48.008Z,9.04
2023-02-18T00:34:47.982Z,8.98
2023-02-18T00:35:48.003Z,8.90
2023-02-18T00:36:47.942Z,8.88
2023-02-18T00:37:47.932Z,8.83
2023-02-18T00:38:47.954Z,8.81
2023-02-18T00:39:47.906Z,8.77
2023-02-18T00:40:47.893Z,8.74
2023-02-18T00:41:47.909Z,8.71
2023-02-18T00:42:47.877Z,8.71
2023-02-18T00:43:47.873Z,8.74
2023-02-18T00:44:47.851Z,8.74
2023-02-18T00:45:47.839Z,8.77
2023-02-18T00:46:47.963Z,8.77
2023-02-18T00:47:47.815Z,8.81
2023-02-18T00:48:47.831Z,8.80
2023-02-18T00:49:47.829Z,8.78
2023-02-18T00:50:47.786Z,8.83
2023-02-18T00:51:47.789Z,8.92
2023-02-18T00:52:47.773Z,8.96
2023-02-18T00:53:47.758Z,8.96
2023-02-18T00:54:47.842Z,8.99
2023-02-18T00:55:47.733Z,9.03
2023-02-18T00:56:47.761Z,9.01
2023-02-18T00:57:47.833Z,9.01
2023-02-18T00:58:47.696Z,9.04
2023-02-18T00:59:47.693Z,9.08
2023-02-18T01:00:47.753Z,9.11
2023-02-18T01:01:47.773Z,9.09
2023-02-18T01:02:47.656Z,9.11
2023-02-18T01:03:47.654Z,9.12
2023-02-18T01:04:47.703Z,9.19
2023-02-18T01:05:47.639Z,9.23
2023-02-18T01:06:47.638Z,9.24
2023-02-18T01:07:47.604Z,9.26
2023-02-18T01:08:47.593Z,9.29
2023-02-18T01:09:47.589Z,9.30
2023-02-18T01:10:47.616Z,9.33
2023-02-18T01:11:47.596Z,9.32
2023-02-18T01:12:47.571Z,9.34
2023-02-18T01:13:47.551Z,9.32
2023-02-18T01:14:47.581Z,9.33
2023-02-18T01:15:47.638Z,9.34
2023-02-18T01:16:58.066Z,9.40
2023-02-18T01:17:47.522Z,9.41
2023-02-18T01:18:47.558Z,9.42
2023-02-18T01:19:47.477Z,9.45
2023-02-18T01:20:47.459Z,9.42
2023-02-18T01:21:47.499Z,9.42
2023-02-18T01:22:47.458Z,9.42
2023-02-18T01:23:47.440Z,9.44
2023-02-18T01:24:47.490Z,9.41
2023-02-18T01:25:47.439Z,9.37
2023-02-18T01:26:47.428Z,9.40
2023-02-18T01:27:47.436Z,9.40
2023-02-18T01:28:47.407Z,9.45
2023-02-18T01:29:47.373Z,9.42
2023-02-18T01:30:47.385Z,9.41
2023-02-18T01:31:47.492Z,9.41
2023-02-18T01:32:47.356Z,9.40
2023-02-18T01:33:47.354Z,9.37
2023-02-18T01:34:47.389Z,9.34
2023-02-18T01:35:47.322Z,9.36
2023-02-18T01:36:47.318Z,9.37
2023-02-18T01:37:47.298Z,9.41
2023-02-18T01:38:47.275Z,9.41
2023-02-18T01:39:47.280Z,9.44
2023-02-18T01:40:47.265Z,9.40
2023-02-18T01:41:48.058Z,9.42
2023-02-18T01:42:47.245Z,9.41
2023-02-18T01:43:47.255Z,9.40
2023-02-18T01:44:47.227Z,9.37
2023-02-18T01:45:47.190Z,9.33
2023-02-18T01:46:47.328Z,9.33
2023-02-18T01:47:47.183Z,9.36
2023-02-18T01:48:47.183Z,9.36
2023-02-18T01:49:47.184Z,9.33
2023-02-18T01:50:47.175Z,9.33
2023-02-18T01:51:47.131Z,9.32
2023-02-18T01:52:47.166Z,9.32
2023-02-18T01:53:47.131Z,9.32
2023-02-18T01:54:47.123Z,9.32
2023-02-18T01:55:47.145Z,9.30
2023-02-18T01:56:47.097Z,9.30
2023-02-18T01:57:47.100Z,9.32
2023-02-18T01:58:47.099Z,9.30
2023-02-18T01:59:47.042Z,9.29
2023-02-18T02:00:47.189Z,9.29
2023-02-18T02:01:47.150Z,9.27
2023-02-18T02:02:47.015Z,9.26
2023-02-18T02:03:47.063Z,9.29
2023-02-18T02:04:46.983Z,9.26
2023-02-18T02:05:47.005Z,9.24
2023-02-18T02:06:46.993Z,9.26
2023-02-18T02:07:47.176Z,9.26
2023-02-18T02:08:46.975Z,9.26
2023-02-18T02:09:46.937Z,9.23
2023-02-18T02:10:46.927Z,9.23
2023-02-18T02:11:46.986Z,9.22
2023-02-18T02:12:46.969Z,9.24
2023-02-18T02:13:46.931Z,9.27
2023-02-18T02:14:46.927Z,9.27
2023-02-18T02:15:46.887Z,9.27
2023-02-18T02:16:46.936Z,9.26
2023-02-18T02:17:46.902Z,9.24
2023-02-18T02:18:46.860Z,9.29
2023-02-18T02:19:46.878Z,9.27
2023-02-18T02:20:46.820Z,9.29
2023-02-18T02:21:46.821Z,9.27
2023-02-18T02:22:46.871Z,9.29
2023-02-18T02:23:46.797Z,9.27
2023-02-18T02:24:46.787Z,9.30
2023-02-18T02:25:46.772Z,9.32
2023-02-18T02:26:46.751Z,9.30
2023-02-18T02:27:46.785Z,9.32
2023-02-18T02:28:46.731Z,9.32
2023-02-18T02:29:46.727Z,9.30
2023-02-18T02:30:46.826Z,9.29
2023-02-18T02:31:46.743Z,9.29
2023-02-18T02:32:46.714Z,9.30
2023-02-18T02:33:46.680Z,9.29
2023-02-18T02:34:46.687Z,9.29
2023-02-18T02:35:46.658Z,9.29
2023-02-18T02:36:46.669Z,9.30
2023-02-18T02:37:46.690Z,9.29
2023-02-18T02:38:46.651Z,9.30
2023-02-18T02:39:46.628Z,9.30
2023-02-18T02:40:46.609Z,9.30
2023-02-18T02:41:46.634Z,9.29
2023-02-18T02:42:46.574Z,9.27
2023-02-18T02:43:46.582Z,9.26
2023-02-18T02:44:46.564Z,9.27
2023-02-18T02:45:46.600Z,9.26
2023-02-18T02:46:46.570Z,9.23
2023-02-18T02:47:46.576Z,9.23
2023-02-18T02:48:46.529Z,9.23
2023-02-18T02:49:46.511Z,9.22
2023-02-18T02:50:46.521Z,9.18
2023-02-18T02:51:46.525Z,9.16
2023-02-18T02:52:46.491Z,9.18
2023-02-18T02:53:46.517Z,9.15
2023-02-18T02:54:46.481Z,9.16
2023-02-18T02:55:46.443Z,9.12
2023-02-18T02:56:46.556Z,9.15
2023-02-18T02:57:46.420Z,9.14
2023-02-18T02:58:46.412Z,9.12
2023-02-18T02:59:46.411Z,9.12
2023-02-18T03:00:46.547Z,9.09
2023-02-18T03:01:46.413Z,9.11
2023-02-18T03:02:46.445Z,9.11
2023-02-18T03:03:46.366Z,9.11
2023-02-18T03:04:46.360Z,9.12
2023-02-18T03:05:46.369Z,9.11
2023-02-18T03:06:46.331Z,9.11
2023-02-18T03:07:46.384Z,9.09
2023-02-18T03:08:46.326Z,9.09
2023-02-18T03:09:46.342Z,9.08
2023-02-18T03:10:46.354Z,9.06
2023-02-18T03:11:46.274Z,9.09
2023-02-18T03:12:46.300Z,9.11
2023-02-18T03:13:46.258Z,9.09
2023-02-18T03:14:46.245Z,9.09
2023-02-18T03:15:46.239Z,9.11
2023-02-18T03:16:46.275Z,9.12
2023-02-18T03:17:46.287Z,9.12
2023-02-18T03:18:46.230Z,9.14
2023-02-18T03:19:46.183Z,9.12
2023-02-18T03:20:46.173Z,9.15
2023-02-18T03:21:46.209Z,9.11
2023-02-18T03:22:46.175Z,9.14
2023-02-18T03:23:46.158Z,9.14
2023-02-18T03:24:46.136Z,9.14
2023-02-18T03:25:46.189Z,9.11
2023-02-18T03:26:46.114Z,9.11
2023-02-18T03:27:46.249Z,9.12
2023-02-18T03:28:46.119Z,9.12
2023-02-18T03:29:46.085Z,9.11
2023-02-18T03:30:46.095Z,9.09
2023-02-18T03:31:46.153Z,9.08
2023-02-18T03:32:46.120Z,9.08
2023-02-18T03:33:46.106Z,9.08
2023-02-18T03:34:46.059Z,9.11
2023-02-18T03:35:46.021Z,9.08
2023-02-18T03:36:46.008Z,9.12
2023-02-18T03:37:46.005Z,9.11
2023-02-18T03:38:46.010Z,9.09
2023-02-18T03:39:46.012Z,9.09
2023-02-18T03:40:45.980Z,9.09
2023-02-18T03:41:45.985Z,9.11
2023-02-18T03:42:45.965Z,9.11
2023-02-18T03:43:45.935Z,9.12
2023-02-18T03:44:45.981Z,9.16
2023-02-18T03:45:45.998Z,9.16
2023-02-18T03:46:45.936Z,9.16
2023-02-18T03:47:45.915Z,9.14
2023-02-18T03:48:45.895Z,9.14
2023-02-18T03:49:45.870Z,9.12
2023-02-18T03:50:45.915Z,9.12
2023-02-18T03:51:45.847Z,9.12
2023-02-18T03:52:45.834Z,9.12
2023-02-18T03:53:45.824Z,9.11
2023-02-18T03:54:45.816Z,9.08
2023-02-18T03:55:45.820Z,9.04
2023-02-18T03:56:45.831Z,9.06
2023-02-18T03:57:45.830Z,9.06
2023-02-18T03:58:45.841Z,9.09
2023-02-18T03:59:45.765Z,9.06
2023-02-18T04:00:45.749Z,9.11
2023-02-18T04:01:45.818Z,9.09
2023-02-18T04:02:45.743Z,9.09
2023-02-18T04:03:45.743Z,9.14
2023-02-18T04:04:45.728Z,9.14
2023-02-18T04:05:45.749Z,9.12
2023-02-18T04:06:45.736Z,9.14
2023-02-18T04:07:45.700Z,9.12
2023-02-18T04:08:45.723Z,9.12
2023-02-18T04:09:45.710Z,9.11
2023-02-18T04:10:45.663Z,9.09
2023-02-18T04:11:45.665Z,9.08
2023-02-18T04:12:45.657Z,9.09
2023-02-18T04:13:45.604Z,9.09
2023-02-18T04:14:45.605Z,9.08
2023-02-18T04:15:45.586Z,9.08
2023-02-18T04:16:45.654Z,9.08
2023-02-18T04:17:45.653Z,9.09
2023-02-18T04:18:45.583Z,9.08
2023-02-18T04:19:53.093Z,9.04
2023-02-18T04:20:45.560Z,9.06
2023-02-18T04:21:45.516Z,9.06
2023-02-18T04:22:45.527Z,9.08
2023-02-18T04:23:45.668Z,9.06
2023-02-18T04:24:45.509Z,9.09
2023-02-18T04:25:45.485Z,9.08
2023-02-18T04:26:45.497Z,9.06
2023-02-18T04:27:45.489Z,9.09
2023-02-18T04:28:45.477Z,9.08
2023-02-18T04:29:45.510Z,9.11
2023-02-18T04:30:45.560Z,9.09
2023-02-18T04:31:45.570Z,9.09
2023-02-18T04:32:45.408Z,9.11
2023-02-18T04:33:45.392Z,9.06
2023-02-18T04:34:45.406Z,9.06
2023-02-18T04:35:45.425Z,9.06
2023-02-18T04:36:45.376Z,9.11
2023-02-18T04:37:45.476Z,9.09
2023-02-18T04:38:45.411Z,9.09
2023-02-18T04:39:45.341Z,9.09
2023-02-18T04:40:45.450Z,9.09
2023-02-18T04:41:45.311Z,9.11
2023-02-18T04:42:45.305Z,9.09
2023-02-18T04:43:45.282Z,9.11
2023-02-18T04:44:47.336Z,9.11
2023-02-18T04:45:45.350Z,9.11
2023-02-18T04:46:45.368Z,9.11
2023-02-18T04:47:45.237Z,9.09
2023-02-18T04:48:45.274Z,9.08
2023-02-18T04:49:45.229Z,9.06
2023-02-18T04:50:45.337Z,9.03
2023-02-18T04:51:45.297Z,9.01
2023-02-18T04:52:45.227Z,9.01
2023-02-18T04:53:45.175Z,8.98
2023-02-18T04:54:45.197Z,9.01
2023-02-18T04:55:45.209Z,9.01
2023-02-18T04:56:45.224Z,8.98
2023-02-18T04:57:45.140Z,8.95
2023-02-18T04:58:45.223Z,8.96
2023-02-18T04:59:45.131Z,8.95
2023-02-18T05:00:45.102Z,8.95
2023-02-18T05:01:45.091Z,8.95
2023-02-18T05:02:45.085Z,8.93
2023-02-18T05:03:45.167Z,8.93
2023-02-18T05:04:45.084Z,8.93
2023-02-18T05:05:45.050Z,8.90
2023-02-18T05:06:45.073Z,8.90
2023-02-18T05:07:45.042Z,8.90
2023-02-18T05:08:45.042Z,8.89
2023-02-18T05:09:45.034Z,8.88
2023-02-18T05:10:45.036Z,8.86
2023-02-18T05:11:45.013Z,8.85
2023-02-18T05:12:44.983Z,8.83
2023-02-18T05:13:44.993Z,8.81
2023-02-18T05:14:44.998Z,8.83
2023-02-18T05:15:45.017Z,8.83
2023-02-18T05:16:44.953Z,8.83
2023-02-18T05:17:44.954Z,8.81
2023-02-18T05:18:44.921Z,8.81
2023-02-18T05:19:44.902Z,8.81
2023-02-18T05:20:44.954Z,8.81
2023-02-18T05:21:44.892Z,8.81
2023-02-18T05:22:44.882Z,8.80
2023-02-18T05:23:44.860Z,8.81
2023-02-18T05:24:44.853Z,8.81
2023-02-18T05:25:44.836Z,8.80
2023-02-18T05:26:44.885Z,8.81
2023-02-18T05:27:44.910Z,8.81
2023-02-18T05:28:44.839Z,8.83
2023-02-18T05:29:44.798Z,8.85
2023-02-18T05:30:44.850Z,8.83
2023-02-18T05:31:44.962Z,8.83
2023-02-18T05:32:44.797Z,8.88
2023-02-18T05:33:44.833Z,8.86
2023-02-18T05:34:44.784Z,8.90
2023-02-18T05:35:44.831Z,8.89
2023-02-18T05:36:44.733Z,8.92
2023-02-18T05:37:44.722Z,8.93
2023-02-18T05:38:44.703Z,8.92
2023-02-18T05:39:44.724Z,8.93
2023-02-18T05:40:44.678Z,8.93
2023-02-18T05:41:44.673Z,8.92
2023-02-18T05:42:44.704Z,8.93
2023-02-18T05:43:44.720Z,8.95
2023-02-18T05:44:44.654Z,8.96
2023-02-18T05:45:44.709Z,8.98
2023-02-18T05:46:44.713Z,8.99
2023-02-18T05:47:44.620Z,8.99
2023-02-18T05:48:44.603Z,9.01
2023-02-18T05:49:44.619Z,8.99
2023-02-18T05:50:44.575Z,9.01
2023-02-18T05:51:44.626Z,9.01
2023-02-18T05:52:44.582Z,9.01
2023-02-18T05:53:44.667Z,9.03
2023-02-18T05:54:44.558Z,9.01
2023-02-18T05:55:44.576Z,9.04
2023-02-18T05:56:44.590Z,9.04
2023-02-18T05:57:45.132Z,9.04
2023-02-18T05:58:44.517Z,9.01
2023-02-18T05:59:44.475Z,9.06
2023-02-18T06:00:44.496Z,9.08
2023-02-18T06:01:44.615Z,9.09
2023-02-18T06:02:44.509Z,9.09
2023-02-18T06:03:44.464Z,9.06
2023-02-18T06:04:44.426Z,9.06
2023-02-18T06:05:44.438Z,9.08
2023-02-18T06:06:44.437Z,9.09
2023-02-18T06:07:44.461Z,9.11
2023-02-18T06:08:44.455Z,9.12
2023-02-18T06:09:44.398Z,9.14
2023-02-18T06:10:44.374Z,9.14
2023-02-18T06:11:44.353Z,9.14
2023-02-18T06:12:44.358Z,9.14
2023-02-18T06:13:44.381Z,9.16
2023-02-18T06:14:44.389Z,9.15
2023-02-18T06:15:44.355Z,9.16
2023-02-18T06:16:44.311Z,9.15
2023-02-18T06:17:44.311Z,9.12
2023-02-18T06:18:44.346Z,9.12
2023-02-18T06:19:44.263Z,9.16
2023-02-18T06:20:44.253Z,9.15
2023-02-18T06:21:44.289Z,9.16
2023-02-18T06:22:44.233Z,9.15
2023-02-18T06:23:44.217Z,9.15
2023-02-18T06:24:44.209Z,9.16
2023-02-18T06:25:44.200Z,9.19
2023-02-18T06:26:44.261Z,9.18
2023-02-18T06:27:44.183Z,9.16
2023-02-18T06:28:44.182Z,9.14
2023-02-18T06:29:44.185Z,9.12
2023-02-18T06:30:44.169Z,9.12
2023-02-18T06:31:44.278Z,9.12
2023-02-18T06:32:44.174Z,9.12
2023-02-18T06:33:44.117Z,9.11
2023-02-18T06:34:44.113Z,9.09
2023-02-18T06:35:44.088Z,9.08
2023-02-18T06:36:44.108Z,9.12
2023-02-18T06:37:44.102Z,9.14
2023-02-18T06:38:44.105Z,9.14
2023-02-18T06:39:44.042Z,9.19
2023-02-18T06:40:44.050Z,9.16
2023-02-18T06:41:44.063Z,9.19
2023-02-18T06:42:44.027Z,9.18
2023-02-18T06:43:44.031Z,9.19
2023-02-18T06:44:44.664Z,9.23
2023-02-18T06:45:43.978Z,9.22
2023-02-18T06:46:44.091Z,9.23
2023-02-18T06:47:43.965Z,9.19
2023-02-18T06:48:43.962Z,9.23
2023-02-18T06:49:43.967Z,9.24
2023-02-18T06:50:43.942Z,9.26
2023-02-18T06:51:43.949Z,9.27
2023-02-18T06:52:43.902Z,9.26
2023-02-18T06:53:43.921Z,9.26
2023-02-18T06:54:43.894Z,9.24
2023-02-18T06:55:43.868Z,9.23
2023-02-18T06:56:43.859Z,9.19
2023-02-18T06:57:43.882Z,9.23
2023-02-18T06:58:43.844Z,9.22
2023-02-18T06:59:43.839Z,9.22
2023-02-18T07:00:43.857Z,9.19
2023-02-18T07:01:43.812Z,9.23
2023-02-18T07:02:43.824Z,9.23
2023-02-18T07:03:43.816Z,9.22
2023-02-18T07:04:43.777Z,9.22
2023-02-18T07:05:43.794Z,9.24
2023-02-18T07:06:43.780Z,9.23
2023-02-18T07:07:43.734Z,9.26
2023-02-18T07:08:43.766Z,9.24
2023-02-18T07:09:43.717Z,9.27
2023-02-18T07:10:43.713Z,9.30
2023-02-18T07:11:43.701Z,9.33
2023-02-18T07:12:43.693Z,9.36
2023-02-18T07:13:43.670Z,9.34
2023-02-18T07:14:43.692Z,9.34
2023-02-18T07:15:43.703Z,9.37
2023-02-18T07:16:43.704Z,9.37
2023-02-18T07:17:43.638Z,9.36
2023-02-18T07:18:43.649Z,9.41
2023-02-18T07:19:43.630Z,9.42
2023-02-18T07:20:43.688Z,9.37
2023-02-18T07:21:43.594Z,9.45
2023-02-18T07:22:43.599Z,9.52
2023-02-18T07:23:43.595Z,9.60
2023-02-18T07:24:43.562Z,9.63
2023-02-18T07:25:43.560Z,9.65
2023-02-18T07:26:43.553Z,9.70
2023-02-18T07:27:43.533Z,9.73
2023-02-18T07:28:43.546Z,9.75
2023-02-18T07:29:43.515Z,9.73
2023-02-18T07:30:43.508Z,9.75
2023-02-18T07:31:43.846Z,9.75
2023-02-18T07:32:43.505Z,9.78
2023-02-18T07:33:43.470Z,9.81
2023-02-18T07:34:43.484Z,9.81
2023-02-18T07:35:43.450Z,9.81
2023-02-18T07:36:43.433Z,9.77
2023-02-18T07:37:43.453Z,9.77
2023-02-18T07:38:43.437Z,9.81
2023-02-18T07:39:43.396Z,9.78
2023-02-18T07:40:43.401Z,9.81
2023-02-18T07:41:43.400Z,9.84
2023-02-18T07:42:43.392Z,9.91
2023-02-18T07:43:43.428Z,9.90
2023-02-18T07:44:43.360Z,10.01
2023-02-18T07:45:43.719Z,10.17
2023-02-18T07:46:43.426Z,10.18
2023-02-18T07:47:43.337Z,10.27
2023-02-18T07:48:43.301Z,10.36
2023-02-18T07:49:43.304Z,10.70
2023-02-18T07:50:43.381Z,10.98
2023-02-18T07:51:43.271Z,10.97
2023-02-18T07:52:43.262Z,10.85
2023-02-18T07:53:43.270Z,10.94
2023-02-18T07:54:43.282Z,10.93
2023-02-18T07:55:43.322Z,11.15
2023-02-18T07:56:43.230Z,11.45
2023-02-18T07:57:43.205Z,11.38
2023-02-18T07:58:43.217Z,11.85
2023-02-18T07:59:43.221Z,11.77
2023-02-18T08:00:43.208Z,11.74
2023-02-18T08:01:44.837Z,11.85
2023-02-18T08:02:43.155Z,11.74
2023-02-18T08:03:43.181Z,11.59
2023-02-18T08:04:43.160Z,11.30
2023-02-18T08:05:43.128Z,11.22
2023-02-18T08:06:43.192Z,10.98
2023-02-18T08:07:43.105Z,10.80
2023-02-18T08:08:43.144Z,10.80
2023-02-18T08:09:43.083Z,11.11
2023-02-18T08:10:43.098Z,10.98
2023-02-18T08:11:43.133Z,10.86
2023-02-18T08:12:43.084Z,10.80
2023-02-18T08:13:43.037Z,11.34
2023-02-18T08:14:43.021Z,11.36
2023-02-18T08:15:43.017Z,11.41
2023-02-18T08:16:43.042Z,11.41
2023-02-18T08:17:43.001Z,11.31
2023-02-18T08:18:42.994Z,11.40
2023-02-18T08:19:42.971Z,11.40
2023-02-18T08:20:42.993Z,12.08
2023-02-18T08:21:42.961Z,11.74
2023-02-18T08:22:42.966Z,12.07
2023-02-18T08:23:42.961Z,12.28
2023-02-18T08:24:42.938Z,11.71
2023-02-18T08:25:43.046Z,11.97
2023-02-18T08:26:59.204Z,12.41
2023-02-18T08:27:43.895Z,12.53
2023-02-18T08:28:42.874Z,12.54
2023-02-18T08:29:42.866Z,12.69
2023-02-18T08:30:43.028Z,12.33
2023-02-18T08:31:44.748Z,12.23
2023-02-18T08:32:42.835Z,12.46
2023-02-18T08:33:42.843Z,12.48
2023-02-18T08:34:42.892Z,12.54
2023-02-18T08:35:42.856Z,12.90
2023-02-18T08:36:42.819Z,12.54
2023-02-18T08:37:52.656Z,13.05
2023-02-18T08:38:43.792Z,13.08
2023-02-18T08:39:42.782Z,12.98
2023-02-18T08:40:42.809Z,12.63
2023-02-18T08:41:42.763Z,12.69
2023-02-18T08:42:42.810Z,12.72
2023-02-18T08:43:42.723Z,13.01
2023-02-18T08:44:42.701Z,12.76
2023-02-18T08:45:42.803Z,12.47
2023-02-18T08:46:42.801Z,12.51
2023-02-18T08:48:15.883Z,12.73
2023-02-18T08:48:43.662Z,13.16
2023-02-18T08:49:42.655Z,12.55
2023-02-18T08:50:42.643Z,12.77
2023-02-18T08:51:42.653Z,12.83
2023-02-18T08:52:42.612Z,12.53
2023-02-18T08:53:42.608Z,12.33
2023-02-18T08:54:42.636Z,12.63
2023-02-18T08:55:42.644Z,12.54
2023-02-18T08:56:42.596Z,12.77
2023-02-18T08:57:42.561Z,12.21
2023-02-18T08:58:42.596Z,12.13
2023-02-18T08:59:42.543Z,11.85
2023-02-18T09:00:42.569Z,12.17
2023-02-18T09:01:42.668Z,12.54
2023-02-18T09:02:42.510Z,13.04
2023-02-18T09:03:42.524Z,12.96
2023-02-18T09:04:42.484Z,13.23
2023-02-18T09:05:42.481Z,12.72
2023-02-18T09:06:42.582Z,13.05
2023-02-18T09:07:42.496Z,13.32
2023-02-18T09:08:42.447Z,14.38
2023-02-18T09:09:42.471Z,14.45
2023-02-18T09:10:43.582Z,14.64
2023-02-18T09:11:42.410Z,14.83
2023-02-18T09:12:42.413Z,13.90
2023-02-18T09:13:42.415Z,13.63
2023-02-18T09:14:42.372Z,13.97
2023-02-18T09:15:42.401Z,13.64
2023-02-18T09:16:47.254Z,14.48
2023-02-18T09:17:42.351Z,15.19
2023-02-18T09:18:42.374Z,16.06
2023-02-18T09:19:42.332Z,14.93
2023-02-18T09:20:50.110Z,14.95
2023-02-18T09:21:42.294Z,15.35
2023-02-18T09:22:42.285Z,15.48
2023-02-18T09:23:42.318Z,15.44
2023-02-18T09:24:42.261Z,15.69
2023-02-18T09:25:42.253Z,15.45
2023-02-18T09:26:42.268Z,15.73
2023-02-18T09:27:42.235Z,16.13
2023-02-18T09:28:42.242Z,16.28
2023-02-18T09:29:42.267Z,15.63
2023-02-18T09:30:42.360Z,15.32
2023-02-18T09:31:42.308Z,15.43
2023-02-18T09:32:42.217Z,14.26
2023-02-18T09:33:43.272Z,14.27
2023-02-18T09:34:42.219Z,14.61
2023-02-18T09:35:42.195Z,15.58
2023-02-18T09:36:42.130Z,15.40
2023-02-18T09:37:42.136Z,14.90
2023-02-18T09:38:42.149Z,15.03
2023-02-18T09:39:42.104Z,14.13
2023-02-18T09:40:42.124Z,14.00
2023-02-18T09:41:42.721Z,14.36
2023-02-18T09:42:42.093Z,14.34
2023-02-18T09:43:42.102Z,14.36
2023-02-18T09:44:42.070Z,15.15
2023-02-18T09:45:42.066Z,15.47
2023-02-18T09:46:42.051Z,15.27
2023-02-18T09:47:42.057Z,15.32
2023-02-18T09:48:42.057Z,14.90
2023-02-18T09:49:41.991Z,13.96
2023-02-18T09:50:41.978Z,14.01
2023-02-18T09:51:41.976Z,13.65
2023-02-18T09:52:41.963Z,14.21
2023-02-18T09:53:41.986Z,14.31
2023-02-18T09:54:41.938Z,14.16
2023-02-18T09:55:41.949Z,13.23
2023-02-18T09:56:42.083Z,13.02
2023-02-18T09:57:41.925Z,13.38
2023-02-18T09:58:41.921Z,14.01
2023-02-18T09:59:41.896Z,12.95
2023-02-18T10:00:41.912Z,12.77
2023-02-18T10:01:41.973Z,12.93
2023-02-18T10:02:41.903Z,13.24
2023-02-18T10:03:42.732Z,13.39
2023-02-18T10:04:41.850Z,13.67
2023-02-18T10:05:41.862Z,14.03
2023-02-18T10:06:41.825Z,15.23
2023-02-18T10:07:41.820Z,16.16
2023-02-18T10:08:41.805Z,16.74
2023-02-18T10:09:42.262Z,15.84
2023-02-18T10:10:41.783Z,15.88
2023-02-18T10:11:41.775Z,15.32
2023-02-18T10:12:41.816Z,14.58
2023-02-18T10:13:41.757Z,14.67
2023-02-18T10:14:41.750Z,14.58
2023-02-18T10:15:41.852Z,14.59
2023-02-18T10:16:41.733Z,14.73
2023-02-18T10:17:41.690Z,14.44
2023-02-18T10:18:41.707Z,14.51
2023-02-18T10:19:41.756Z,14.45
2023-02-18T10:20:41.731Z,14.15
2023-02-18T10:21:41.671Z,14.30
2023-02-18T10:22:41.673Z,14.85
2023-02-18T10:23:41.645Z,15.01
2023-02-18T10:24:41.639Z,14.70
2023-02-18T10:25:41.621Z,14.36
2023-02-18T10:26:41.591Z,14.93
2023-02-18T10:27:41.644Z,15.66
2023-02-18T10:28:41.580Z,16.06
2023-02-18T10:29:41.565Z,16.51
2023-02-18T10:30:41.592Z,17.34
2023-02-18T10:31:41.695Z,16.14
2023-02-18T10:32:41.553Z,16.09
2023-02-18T10:33:41.552Z,17.02
2023-02-18T10:34:41.542Z,16.08
2023-02-18T10:35:41.513Z,15.77
2023-02-18T10:36:41.503Z,16.05
2023-02-18T10:37:41.537Z,15.69
2023-02-18T10:38:41.524Z,15.58
2023-02-18T10:39:41.603Z,15.10
2023-02-18T10:40:41.475Z,14.52
2023-02-18T10:41:41.442Z,14.97
2023-02-18T10:42:41.454Z,14.67
2023-02-18T10:43:41.414Z,15.11
2023-02-18T10:44:41.447Z,15.66
2023-02-18T10:45:41.416Z,15.84
2023-02-18T10:46:46.375Z,16.47
2023-02-18T10:47:41.376Z,16.51
2023-02-18T10:48:41.389Z,15.59
2023-02-18T10:49:41.438Z,16.32
2023-02-18T10:50:41.362Z,15.81
2023-02-18T10:51:41.343Z,16.33
2023-02-18T10:52:41.339Z,16.14
2023-02-18T10:53:41.322Z,16.58
2023-02-18T10:54:41.341Z,17.09
2023-02-18T10:55:41.326Z,16.72
2023-02-18T10:56:41.341Z,16.18
2023-02-18T10:57:41.284Z,16.74
2023-02-18T10:58:41.250Z,17.35
2023-02-18T10:59:41.250Z,17.34
2023-02-18T11:00:41.242Z,17.28
2023-02-18T11:01:41.461Z,17.34
2023-02-18T11:02:41.232Z,18.01
2023-02-18T11:03:41.204Z,16.92
2023-02-18T11:04:41.266Z,16.82
2023-02-18T11:05:41.203Z,16.47
2023-02-18T11:06:41.200Z,16.69
2023-02-18T11:07:41.164Z,16.91
2023-02-18T11:08:41.188Z,17.50
2023-02-18T11:09:41.178Z,17.46
2023-02-18T11:10:41.130Z,17.49
2023-02-18T11:11:41.790Z,18.49
2023-02-18T11:12:41.201Z,17.54
2023-02-18T11:13:41.169Z,17.62
2023-02-18T11:14:41.112Z,17.65
2023-02-18T11:15:41.086Z,17.66
2023-02-18T11:16:41.210Z,17.96
2023-02-18T11:17:41.221Z,16.73
2023-02-18T11:18:41.118Z,16.82
2023-02-18T11:19:41.071Z,16.94
2023-02-18T11:20:41.037Z,16.22
2023-02-18T11:21:41.074Z,16.98
2023-02-18T11:22:41.036Z,16.91
2023-02-18T11:23:41.017Z,17.47
2023-02-18T11:24:41.026Z,17.68
2023-02-18T11:25:40.987Z,16.97
2023-02-18T11:26:40.983Z,17.41
2023-02-18T11:27:40.976Z,16.95
2023-02-18T11:28:40.943Z,16.83
2023-02-18T11:29:40.942Z,18.17
2023-02-18T11:30:41.049Z,18.23
2023-02-18T11:31:41.023Z,18.38
2023-02-18T11:32:40.928Z,18.17
2023-02-18T11:33:40.910Z,17.31
2023-02-18T11:34:40.942Z,17.46
2023-02-18T11:35:40.883Z,16.72
2023-02-18T11:36:40.972Z,16.34
2023-02-18T11:37:40.868Z,16.67
2023-02-18T11:38:40.960Z,17.13
2023-02-18T11:39:40.841Z,16.88
2023-02-18T11:40:40.821Z,16.28
2023-02-18T11:41:40.890Z,16.18
2023-02-18T11:42:40.879Z,15.83
2023-02-18T11:43:40.791Z,15.99
2023-02-18T11:44:40.782Z,15.69
2023-02-18T11:45:40.809Z,15.03
2023-02-18T11:46:40.827Z,15.07
2023-02-18T11:47:40.784Z,15.44
2023-02-18T11:48:40.779Z,15.29
2023-02-18T11:49:40.757Z,15.33
2023-02-18T11:50:40.764Z,15.72
2023-02-18T11:51:40.749Z,15.65
2023-02-18T11:52:40.700Z,15.35
2023-02-18T11:53:40.716Z,15.85
2023-02-18T11:54:40.682Z,14.82
2023-02-18T11:55:40.662Z,14.41
2023-02-18T11:56:40.658Z,14.45
2023-02-18T11:57:40.716Z,14.40
2023-02-18T11:58:40.655Z,14.70
2023-02-18T11:59:40.633Z,14.87
2023-02-18T12:00:40.640Z,15.29
2023-02-18T12:01:40.675Z,15.03
2023-02-18T12:02:40.598Z,14.83
2023-02-18T12:03:40.622Z,14.97
2023-02-18T12:04:40.578Z,14.92
2023-02-18T12:05:40.621Z,14.59
2023-02-18T12:06:40.653Z,13.98
2023-02-18T12:07:40.579Z,14.12
2023-02-18T12:08:40.546Z,14.33
2023-02-18T12:09:40.557Z,14.44
2023-02-18T12:10:40.508Z,14.18
2023-02-18T12:11:40.503Z,14.37
2023-02-18T12:12:40.529Z,13.97
2023-02-18T12:13:40.473Z,13.98
2023-02-18T12:14:40.467Z,14.04
2023-02-18T12:15:40.453Z,14.05
2023-02-18T12:16:40.474Z,14.18
2023-02-18T12:17:40.473Z,13.97
2023-02-18T12:18:42.670Z,13.96
2023-02-18T12:19:40.412Z,13.82
2023-02-18T12:20:40.410Z,13.94
2023-02-18T12:21:40.385Z,13.85
2023-02-18T12:22:40.400Z,13.68
2023-02-18T12:23:40.377Z,13.76
2023-02-18T12:24:40.401Z,13.79
2023-02-18T12:25:40.390Z,13.73
2023-02-18T12:26:40.336Z,14.04
2023-02-18T12:27:40.324Z,14.13
2023-02-18T12:28:40.347Z,14.05
2023-02-18T12:29:40.332Z,14.15
2023-02-18T12:30:40.311Z,14.61
2023-02-18T12:31:40.399Z,14.87
2023-02-18T12:32:40.308Z,15.22
2023-02-18T12:33:40.277Z,14.87
2023-02-18T12:34:40.251Z,15.05
2023-02-18T12:35:40.232Z,15.08
2023-02-18T12:36:40.248Z,14.52
2023-02-18T12:37:40.271Z,14.15
2023-02-18T12:38:40.266Z,14.37
2023-02-18T12:39:40.198Z,14.69
2023-02-18T12:40:40.195Z,14.49
2023-02-18T12:41:40.318Z,14.23
2023-02-18T12:42:40.167Z,14.56
2023-02-18T12:43:40.160Z,14.41
2023-02-18T12:44:40.155Z,14.52
2023-02-18T12:45:40.176Z,14.74
2023-02-18T12:46:40.169Z,14.96
2023-02-18T12:47:40.186Z,15.56
2023-02-18T12:48:40.122Z,15.62
2023-02-18T12:49:40.095Z,15.33
2023-02-18T12:50:40.097Z,15.04
2023-02-18T12:51:40.204Z,15.32
2023-02-18T12:52:40.134Z,15.15
2023-02-18T12:53:40.050Z,15.01
2023-02-18T12:54:40.062Z,15.51
2023-02-18T12:55:40.058Z,15.76
2023-02-18T12:56:40.221Z,15.33
2023-02-18T12:57:40.053Z,15.48
2023-02-18T12:58:40.062Z,15.48
2023-02-18T12:59:39.978Z,15.58
2023-02-18T13:00:39.967Z,15.70
2023-02-18T13:01:40.101Z,15.38
2023-02-18T13:02:40.043Z,14.95
2023-02-18T13:03:39.989Z,15.25
2023-02-18T13:04:39.971Z,15.05
2023-02-18T13:05:40.033Z,15.03
2023-02-18T13:06:39.908Z,14.93
2023-02-18T13:07:39.890Z,14.89